sensor_id;sensor_type;location;lat;lon;timestamp;temperature;humidity
60473;DHT22;46318;52.716;6.444;2023-03-20T00:01:21;9.10;99.90
60473;DHT22;46318;52.716;6.444;2023-03-20T00:03:52;9.10;99.90
60473;DHT22;46318;52.716;6.444;2023-03-20T00:06:21;9.10;99.90
60473;DHT22;46318;52.716;6.444;2023-03-20T00:08:50;9.10;99.90
60473;DHT22;46318;52.716;6.444;2023-03-20T00:13:57;9.10;99.90
60473;DHT22;46318;52.716;6.444;2023-03-20T00:16:33;9.10;99.90
60473;DHT22;46318;52.716;6.444;2023-03-20T00:19:01;9.10;99.90
60473;DHT22;46318;52.716;6.444;2023-03-20T00:21:28;9.10;99.90
60473;DHT22;46318;52.716;6.444;2023-03-20T00:23:54;9.10;99.90
60473;DHT22;46318;52.716;6.444;2023-03-20T00:26:24;9.00;99.90
60473;DHT22;46318;52.716;6.444;2023-03-20T00:28:52;9.00;99.90
60473;DHT22;46318;52.716;6.444;2023-03-20T00:33:57;9.00;99.90
60473;DHT22;46318;52.716;6.444;2023-03-20T00:36:25;9.00;99.90
60473;DHT22;46318;52.716;6.444;2023-03-20T00:38:51;9.00;99.90
60473;DHT22;46318;52.716;6.444;2023-03-20T00:41:22;9.00;99.90
60473;DHT22;46318;52.716;6.444;2023-03-20T00:43:58;9.00;99.90
60473;DHT22;46318;52.716;6.444;2023-03-20T00:46:26;9.00;99.90
60473;DHT22;46318;52.716;6.444;2023-03-20T00:48:52;8.90;99.90
60473;DHT22;46318;52.716;6.444;2023-03-20T00:51:19;8.90;99.90
60473;DHT22;46318;52.716;6.444;2023-03-20T00:53:45;8.90;99.90
60473;DHT22;46318;52.716;6.444;2023-03-20T00:56:33;8.90;99.90
60473;DHT22;46318;52.716;6.444;2023-03-20T00:59:02;8.90;99.90
60473;DHT22;46318;52.716;6.444;2023-03-20T01:01:29;8.90;99.90
60473;DHT22;46318;52.716;6.444;2023-03-20T01:03:57;8.90;99.90
60473;DHT22;46318;52.716;6.444;2023-03-20T01:06:24;8.90;99.90
60473;DHT22;46318;52.716;6.444;2023-03-20T01:08:50;8.90;99.90
60473;DHT22;46318;52.716;6.444;2023-03-20T01:11:19;8.90;99.90
60473;DHT22;46318;52.716;6.444;2023-03-20T01:13:46;8.80;99.90
60473;DHT22;46318;52.716;6.444;2023-03-20T01:16:19;8.80;99.90
60473;DHT22;46318;52.716;6.444;2023-03-20T01:18:48;8.80;99.90
60473;DHT22;46318;52.716;6.444;2023-03-20T01:21:15;8.80;99.90
60473;DHT22;46318;52.716;6.444;2023-03-20T01:23:41;8.80;99.90
60473;DHT22;46318;52.716;6.444;2023-03-20T01:26:35;8.80;99.90
60473;DHT22;46318;52.716;6.444;2023-03-20T01:29:22;8.80;99.90
60473;DHT22;46318;52.716;6.444;2023-03-20T01:31:50;8.80;99.90
60473;DHT22;46318;52.716;6.444;2023-03-20T01:34:17;8.70;99.90
60473;DHT22;46318;52.716;6.444;2023-03-20T01:36:48;8.80;99.90
60473;DHT22;46318;52.716;6.444;2023-03-20T01:39:16;8.70;99.90
60473;DHT22;46318;52.716;6.444;2023-03-20T01:41:43;8.70;99.90
60473;DHT22;46318;52.716;6.444;2023-03-20T01:44:21;8.70;99.90
60473;DHT22;46318;52.716;6.444;2023-03-20T01:46:51;8.70;99.90
60473;DHT22;46318;52.716;6.444;2023-03-20T01:51:44;8.70;99.90
60473;DHT22;46318;52.716;6.444;2023-03-20T01:57:07;8.70;99.90
60473;DHT22;46318;52.716;6.444;2023-03-20T01:59:35;8.70;99.90
60473;DHT22;46318;52.716;6.444;2023-03-20T02:02:04;8.70;99.90
60473;DHT22;46318;52.716;6.444;2023-03-20T02:04:41;8.70;99.90
60473;DHT22;46318;52.716;6.444;2023-03-20T02:07:09;8.60;99.90
60473;DHT22;46318;52.716;6.444;2023-03-20T02:09:36;8.70;99.90
60473;DHT22;46318;52.716;6.444;2023-03-20T02:12:02;8.60;99.90
60473;DHT22;46318;52.716;6.444;2023-03-20T02:14:30;8.60;99.90
60473;DHT22;46318;52.716;6.444;2023-03-20T02:16:57;8.60;99.90
60473;DHT22;46318;52.716;6.444;2023-03-20T02:20:10;8.60;99.90
60473;DHT22;46318;52.716;6.444;2023-03-20T02:37:31;8.60;99.90
60473;DHT22;46318;52.716;6.444;2023-03-20T02:46:10;8.60;99.90
60473;DHT22;46318;52.716;6.444;2023-03-20T02:48:56;8.60;99.90
60473;DHT22;46318;52.716;6.444;2023-03-20T02:54:35;8.50;99.90
60473;DHT22;46318;52.716;6.444;2023-03-20T02:57:32;8.50;99.90
60473;DHT22;46318;52.716;6.444;2023-03-20T03:00:21;8.50;99.90
60473;DHT22;46318;52.716;6.444;2023-03-20T03:03:52;8.50;99.90
60473;DHT22;46318;52.716;6.444;2023-03-20T03:08:51;8.50;99.90
60473;DHT22;46318;52.716;6.444;2023-03-20T03:11:20;8.50;99.90
60473;DHT22;46318;52.716;6.444;2023-03-20T03:13:50;8.50;99.90
60473;DHT22;46318;52.716;6.444;2023-03-20T03:16:44;8.50;99.90
60473;DHT22;46318;52.716;6.444;2023-03-20T03:19:15;8.50;99.90
60473;DHT22;46318;52.716;6.444;2023-03-20T03:21:45;8.50;99.90
60473;DHT22;46318;52.716;6.444;2023-03-20T03:26:59;8.50;99.90
60473;DHT22;46318;52.716;6.444;2023-03-20T03:29:33;8.50;99.90
60473;DHT22;46318;52.716;6.444;2023-03-20T03:32:02;8.50;99.90
60473;DHT22;46318;52.716;6.444;2023-03-20T03:34:34;8.50;99.90
60473;DHT22;46318;52.716;6.444;2023-03-20T03:37:06;8.40;99.90
60473;DHT22;46318;52.716;6.444;2023-03-20T03:42:29;8.40;99.90
60473;DHT22;46318;52.716;6.444;2023-03-20T03:45:03;8.40;99.90
60473;DHT22;46318;52.716;6.444;2023-03-20T03:50:45;8.40;99.90
60473;DHT22;46318;52.716;6.444;2023-03-20T03:53:16;8.40;99.90
60473;DHT22;46318;52.716;6.444;2023-03-20T03:55:49;8.40;99.90
60473;DHT22;46318;52.716;6.444;2023-03-20T03:58:28;8.40;99.90
60473;DHT22;46318;52.716;6.444;2023-03-20T04:00:58;8.40;99.90
60473;DHT22;46318;52.716;6.444;2023-03-20T04:03:29;8.40;99.90
60473;DHT22;46318;52.716;6.444;2023-03-20T04:05:58;8.40;99.90
60473;DHT22;46318;52.716;6.444;2023-03-20T04:08:25;8.30;99.90
60473;DHT22;46318;52.716;6.444;2023-03-20T04:10:51;8.30;99.90
60473;DHT22;46318;52.716;6.444;2023-03-20T04:13:17;8.40;99.90
60473;DHT22;46318;52.716;6.444;2023-03-20T04:15:43;8.30;99.90
60473;DHT22;46318;52.716;6.444;2023-03-20T04:18:14;8.30;99.90
60473;DHT22;46318;52.716;6.444;2023-03-20T04:20:42;8.30;99.90
60473;DHT22;46318;52.716;6.444;2023-03-20T04:23:12;8.30;99.90
60473;DHT22;46318;52.716;6.444;2023-03-20T04:25:39;8.30;99.90
60473;DHT22;46318;52.716;6.444;2023-03-20T04:28:05;8.30;99.90
60473;DHT22;46318;52.716;6.444;2023-03-20T04:30:31;8.30;99.90
60473;DHT22;46318;52.716;6.444;2023-03-20T04:32:57;8.30;99.90
60473;DHT22;46318;52.716;6.444;2023-03-20T04:35:23;8.20;99.90
60473;DHT22;46318;52.716;6.444;2023-03-20T04:37:49;8.20;99.90
60473;DHT22;46318;52.716;6.444;2023-03-20T04:40:15;8.20;99.90
60473;DHT22;46318;52.716;6.444;2023-03-20T04:42:41;8.20;99.90
60473;DHT22;46318;52.716;6.444;2023-03-20T04:45:07;8.20;99.90
60473;DHT22;46318;52.716;6.444;2023-03-20T04:47:33;8.20;99.90
60473;DHT22;46318;52.716;6.444;2023-03-20T04:49:59;8.20;99.90
60473;DHT22;46318;52.716;6.444;2023-03-20T04:52:25;8.20;99.90
60473;DHT22;46318;52.716;6.444;2023-03-20T04:54:51;8.20;99.90
60473;DHT22;46318;52.716;6.444;2023-03-20T04:57:17;8.20;99.90
60473;DHT22;46318;52.716;6.444;2023-03-20T04:59:43;8.20;99.90
60473;DHT22;46318;52.716;6.444;2023-03-20T05:02:09;8.20;99.90
60473;DHT22;46318;52.716;6.444;2023-03-20T05:04:40;8.10;99.90
60473;DHT22;46318;52.716;6.444;2023-03-20T05:07:07;8.10;99.90
60473;DHT22;46318;52.716;6.444;2023-03-20T05:09:32;8.10;99.90
60473;DHT22;46318;52.716;6.444;2023-03-20T05:11:58;8.10;99.90
60473;DHT22;46318;52.716;6.444;2023-03-20T05:14:24;8.10;99.90
60473;DHT22;46318;52.716;6.444;2023-03-20T05:16:50;8.10;99.90
60473;DHT22;46318;52.716;6.444;2023-03-20T05:19:17;8.10;99.90
60473;DHT22;46318;52.716;6.444;2023-03-20T05:21:43;8.10;99.90
60473;DHT22;46318;52.716;6.444;2023-03-20T05:24:09;8.00;99.90
60473;DHT22;46318;52.716;6.444;2023-03-20T05:26:35;8.00;99.90
60473;DHT22;46318;52.716;6.444;2023-03-20T05:29:00;8.00;99.90
60473;DHT22;46318;52.716;6.444;2023-03-20T05:31:26;8.00;99.90
60473;DHT22;46318;52.716;6.444;2023-03-20T05:33:52;8.00;99.90
60473;DHT22;46318;52.716;6.444;2023-03-20T05:36:18;8.00;99.90
60473;DHT22;46318;52.716;6.444;2023-03-20T05:38:44;8.00;99.90
60473;DHT22;46318;52.716;6.444;2023-03-20T05:41:10;8.00;99.90
60473;DHT22;46318;52.716;6.444;2023-03-20T05:43:36;8.00;99.90
60473;DHT22;46318;52.716;6.444;2023-03-20T05:46:02;8.00;99.90
60473;DHT22;46318;52.716;6.444;2023-03-20T05:48:28;8.00;99.90
60473;DHT22;46318;52.716;6.444;2023-03-20T05:50:55;8.00;99.90
60473;DHT22;46318;52.716;6.444;2023-03-20T05:53:20;8.00;99.90
60473;DHT22;46318;52.716;6.444;2023-03-20T05:55:46;8.00;99.90
60473;DHT22;46318;52.716;6.444;2023-03-20T05:58:12;8.00;99.90
60473;DHT22;46318;52.716;6.444;2023-03-20T06:00:38;7.90;99.90
60473;DHT22;46318;52.716;6.444;2023-03-20T06:03:05;8.00;99.90
60473;DHT22;46318;52.716;6.444;2023-03-20T06:05:34;7.90;99.90
60473;DHT22;46318;52.716;6.444;2023-03-20T06:08:01;7.90;99.90
60473;DHT22;46318;52.716;6.444;2023-03-20T06:10:27;7.90;99.90
60473;DHT22;46318;52.716;6.444;2023-03-20T06:12:55;7.90;99.90
60473;DHT22;46318;52.716;6.444;2023-03-20T06:15:22;7.90;99.90
60473;DHT22;46318;52.716;6.444;2023-03-20T06:17:48;7.90;99.90
60473;DHT22;46318;52.716;6.444;2023-03-20T06:20:14;7.90;99.90
60473;DHT22;46318;52.716;6.444;2023-03-20T06:22:40;7.90;99.90
60473;DHT22;46318;52.716;6.444;2023-03-20T06:25:06;7.90;99.90
60473;DHT22;46318;52.716;6.444;2023-03-20T06:27:32;8.00;99.90
60473;DHT22;46318;52.716;6.444;2023-03-20T06:29:59;7.90;99.90
60473;DHT22;46318;52.716;6.444;2023-03-20T06:32:24;8.00;99.90
60473;DHT22;46318;52.716;6.444;2023-03-20T06:34:50;8.00;99.90
60473;DHT22;46318;52.716;6.444;2023-03-20T06:37:17;8.00;99.90
60473;DHT22;46318;52.716;6.444;2023-03-20T06:39:43;8.00;99.90
60473;DHT22;46318;52.716;6.444;2023-03-20T06:42:09;8.00;99.90
60473;DHT22;46318;52.716;6.444;2023-03-20T06:44:37;8.00;99.90
60473;DHT22;46318;52.716;6.444;2023-03-20T06:47:04;7.90;99.90
60473;DHT22;46318;52.716;6.444;2023-03-20T06:49:30;8.00;99.90
60473;DHT22;46318;52.716;6.444;2023-03-20T06:51:56;8.00;99.90
60473;DHT22;46318;52.716;6.444;2023-03-20T06:54:24;8.00;99.90
60473;DHT22;46318;52.716;6.444;2023-03-20T06:56:51;8.00;99.90
60473;DHT22;46318;52.716;6.444;2023-03-20T06:59:17;8.00;99.90
60473;DHT22;46318;52.716;6.444;2023-03-20T07:01:43;8.00;99.90
60473;DHT22;46318;52.716;6.444;2023-03-20T07:04:09;8.00;99.90
60473;DHT22;46318;52.716;6.444;2023-03-20T07:06:35;8.00;99.90
60473;DHT22;46318;52.716;6.444;2023-03-20T07:09:01;8.00;99.90
60473;DHT22;46318;52.716;6.444;2023-03-20T07:11:27;8.00;99.90
60473;DHT22;46318;52.716;6.444;2023-03-20T07:13:53;8.00;99.90
60473;DHT22;46318;52.716;6.444;2023-03-20T07:16:19;8.00;99.90
60473;DHT22;46318;52.716;6.444;2023-03-20T07:18:45;8.10;99.90
60473;DHT22;46318;52.716;6.444;2023-03-20T07:21:16;8.10;99.90
60473;DHT22;46318;52.716;6.444;2023-03-20T07:23:43;8.10;99.90
60473;DHT22;46318;52.716;6.444;2023-03-20T07:26:09;8.10;99.90
60473;DHT22;46318;52.716;6.444;2023-03-20T07:28:35;8.10;99.90
60473;DHT22;46318;52.716;6.444;2023-03-20T07:31:01;8.10;99.90
60473;DHT22;46318;52.716;6.444;2023-03-20T07:33:27;8.10;99.90
60473;DHT22;46318;52.716;6.444;2023-03-20T07:35:53;8.10;99.90
60473;DHT22;46318;52.716;6.444;2023-03-20T07:38:20;8.20;99.90
60473;DHT22;46318;52.716;6.444;2023-03-20T07:40:46;8.10;99.90
60473;DHT22;46318;52.716;6.444;2023-03-20T07:43:14;8.20;99.90
60473;DHT22;46318;52.716;6.444;2023-03-20T07:45:41;8.20;99.90
60473;DHT22;46318;52.716;6.444;2023-03-20T07:48:07;8.20;99.90
60473;DHT22;46318;52.716;6.444;2023-03-20T07:50:33;8.20;99.90
60473;DHT22;46318;52.716;6.444;2023-03-20T07:52:59;8.20;99.90
60473;DHT22;46318;52.716;6.444;2023-03-20T07:55:25;8.20;99.90
60473;DHT22;46318;52.716;6.444;2023-03-20T07:57:50;8.30;99.90
60473;DHT22;46318;52.716;6.444;2023-03-20T08:00:17;8.30;99.90
60473;DHT22;46318;52.716;6.444;2023-03-20T08:02:43;8.30;99.90
60473;DHT22;46318;52.716;6.444;2023-03-20T08:05:10;8.30;99.90
60473;DHT22;46318;52.716;6.444;2023-03-20T08:07:36;8.40;99.90
60473;DHT22;46318;52.716;6.444;2023-03-20T08:10:03;8.30;99.90
60473;DHT22;46318;52.716;6.444;2023-03-20T08:12:29;8.40;99.90
60473;DHT22;46318;52.716;6.444;2023-03-20T08:14:55;8.40;99.90
60473;DHT22;46318;52.716;6.444;2023-03-20T08:17:20;8.50;99.90
60473;DHT22;46318;52.716;6.444;2023-03-20T08:19:46;8.50;99.90
60473;DHT22;46318;52.716;6.444;2023-03-20T08:22:12;8.50;99.90
60473;DHT22;46318;52.716;6.444;2023-03-20T08:24:38;8.60;99.90
60473;DHT22;46318;52.716;6.444;2023-03-20T08:27:04;8.60;99.90
60473;DHT22;46318;52.716;6.444;2023-03-20T08:29:30;8.60;99.90
60473;DHT22;46318;52.716;6.444;2023-03-20T08:31:56;8.60;99.90
60473;DHT22;46318;52.716;6.444;2023-03-20T08:34:22;8.70;99.90
60473;DHT22;46318;52.716;6.444;2023-03-20T08:36:48;8.70;99.90
60473;DHT22;46318;52.716;6.444;2023-03-20T08:39:13;8.80;99.90
60473;DHT22;46318;52.716;6.444;2023-03-20T08:41:40;8.80;99.90
60473;DHT22;46318;52.716;6.444;2023-03-20T08:44:11;8.90;99.90
60473;DHT22;46318;52.716;6.444;2023-03-20T08:46:37;8.90;99.90
60473;DHT22;46318;52.716;6.444;2023-03-20T08:49:04;8.90;99.90
60473;DHT22;46318;52.716;6.444;2023-03-20T08:51:30;9.00;99.90
60473;DHT22;46318;52.716;6.444;2023-03-20T08:53:56;9.00;99.90
60473;DHT22;46318;52.716;6.444;2023-03-20T08:56:22;9.00;99.90
60473;DHT22;46318;52.716;6.444;2023-03-20T08:58:48;9.10;99.90
60473;DHT22;46318;52.716;6.444;2023-03-20T09:01:14;9.10;99.90
60473;DHT22;46318;52.716;6.444;2023-03-20T09:03:40;9.20;99.90
60473;DHT22;46318;52.716;6.444;2023-03-20T09:06:07;9.20;99.90
60473;DHT22;46318;52.716;6.444;2023-03-20T09:08:34;9.30;99.90
60473;DHT22;46318;52.716;6.444;2023-03-20T09:11:00;9.30;99.90
60473;DHT22;46318;52.716;6.444;2023-03-20T09:13:26;9.40;99.90
60473;DHT22;46318;52.716;6.444;2023-03-20T09:15:53;9.50;99.90
60473;DHT22;46318;52.716;6.444;2023-03-20T09:18:20;9.50;99.90
60473;DHT22;46318;52.716;6.444;2023-03-20T09:20:47;9.60;99.90
60473;DHT22;46318;52.716;6.444;2023-03-20T09:23:13;9.70;99.90
60473;DHT22;46318;52.716;6.444;2023-03-20T09:25:39;9.80;99.90
60473;DHT22;46318;52.716;6.444;2023-03-20T09:28:05;9.80;99.90
60473;DHT22;46318;52.716;6.444;2023-03-20T09:30:30;9.90;99.90
60473;DHT22;46318;52.716;6.444;2023-03-20T09:32:56;9.90;99.90
60473;DHT22;46318;52.716;6.444;2023-03-20T09:35:22;9.90;99.90
60473;DHT22;46318;52.716;6.444;2023-03-20T09:37:48;10.00;99.90
60473;DHT22;46318;52.716;6.444;2023-03-20T09:40:32;10.00;99.90
60473;DHT22;46318;52.716;6.444;2023-03-20T09:46:38;10.20;99.90
60473;DHT22;46318;52.716;6.444;2023-03-20T09:49:37;10.20;99.90
60473;DHT22;46318;52.716;6.444;2023-03-20T09:52:19;10.30;99.90
60473;DHT22;46318;52.716;6.444;2023-03-20T09:54:52;10.40;99.90
60473;DHT22;46318;52.716;6.444;2023-03-20T09:57:41;10.40;99.90
60473;DHT22;46318;52.716;6.444;2023-03-20T10:00:14;10.50;99.90
60473;DHT22;46318;52.716;6.444;2023-03-20T10:02:52;10.50;99.90
60473;DHT22;46318;52.716;6.444;2023-03-20T10:05:29;10.60;99.90
60473;DHT22;46318;52.716;6.444;2023-03-20T10:08:13;10.60;99.90
60473;DHT22;46318;52.716;6.444;2023-03-20T10:21:43;10.60;99.90
60473;DHT22;46318;52.716;6.444;2023-03-20T10:24:26;10.60;99.90
60473;DHT22;46318;52.716;6.444;2023-03-20T10:26:55;10.60;99.90
60473;DHT22;46318;52.716;6.444;2023-03-20T10:32:19;10.70;99.90
60473;DHT22;46318;52.716;6.444;2023-03-20T10:34:58;10.70;99.90
60473;DHT22;46318;52.716;6.444;2023-03-20T10:40:31;10.70;99.90
60473;DHT22;46318;52.716;6.444;2023-03-20T10:43:03;10.70;99.90
60473;DHT22;46318;52.716;6.444;2023-03-20T10:45:44;10.80;99.90
60473;DHT22;46318;52.716;6.444;2023-03-20T10:48:51;10.70;99.90
60473;DHT22;46318;52.716;6.444;2023-03-20T10:51:39;10.80;99.90
60473;DHT22;46318;52.716;6.444;2023-03-20T10:54:23;10.80;99.90
60473;DHT22;46318;52.716;6.444;2023-03-20T10:56:55;10.80;99.90
60473;DHT22;46318;52.716;6.444;2023-03-20T11:02:10;10.70;99.90
60473;DHT22;46318;52.716;6.444;2023-03-20T11:04:37;10.80;99.90
60473;DHT22;46318;52.716;6.444;2023-03-20T11:12:37;10.80;99.90
60473;DHT22;46318;52.716;6.444;2023-03-20T11:18:10;10.80;99.90
60473;DHT22;46318;52.716;6.444;2023-03-20T11:20:51;10.80;99.90
60473;DHT22;46318;52.716;6.444;2023-03-20T11:23:23;10.80;99.90
60473;DHT22;46318;52.716;6.444;2023-03-20T11:25:58;10.80;99.90
60473;DHT22;46318;52.716;6.444;2023-03-20T11:31:50;10.80;99.90
60473;DHT22;46318;52.716;6.444;2023-03-20T11:36:44;10.80;99.90
60473;DHT22;46318;52.716;6.444;2023-03-20T11:39:26;10.80;99.90
60473;DHT22;46318;52.716;6.444;2023-03-20T11:41:56;10.90;99.90
60473;DHT22;46318;52.716;6.444;2023-03-20T11:44:33;10.90;99.90
60473;DHT22;46318;52.716;6.444;2023-03-20T11:47:04;10.90;99.90
60473;DHT22;46318;52.716;6.444;2023-03-20T11:49:48;10.90;99.90
60473;DHT22;46318;52.716;6.444;2023-03-20T11:52:21;10.90;99.90
60473;DHT22;46318;52.716;6.444;2023-03-20T11:54:52;10.90;99.90
60473;DHT22;46318;52.716;6.444;2023-03-20T11:57:39;11.00;99.90
60473;DHT22;46318;52.716;6.444;2023-03-20T12:00:22;11.00;99.90
60473;DHT22;46318;52.716;6.444;2023-03-20T12:02:49;10.90;99.90
60473;DHT22;46318;52.716;6.444;2023-03-20T12:05:30;11.00;99.90
60473;DHT22;46318;52.716;6.444;2023-03-20T12:08:08;10.90;99.90
60473;DHT22;46318;52.716;6.444;2023-03-20T12:10:41;11.00;99.90
60473;DHT22;46318;52.716;6.444;2023-03-20T12:15:48;11.00;99.90
60473;DHT22;46318;52.716;6.444;2023-03-20T12:21:22;11.00;99.90
60473;DHT22;46318;52.716;6.444;2023-03-20T12:23:55;11.00;99.90
60473;DHT22;46318;52.716;6.444;2023-03-20T12:26:38;11.00;99.90
60473;DHT22;46318;52.716;6.444;2023-03-20T12:30:18;11.00;99.90
60473;DHT22;46318;52.716;6.444;2023-03-20T12:32:41;11.00;99.90
60473;DHT22;46318;52.716;6.444;2023-03-20T12:35:33;11.00;99.90
60473;DHT22;46318;52.716;6.444;2023-03-20T12:38:02;11.00;99.90
60473;DHT22;46318;52.716;6.444;2023-03-20T12:40:41;10.90;99.90
60473;DHT22;46318;52.716;6.444;2023-03-20T12:43:34;10.90;99.90
60473;DHT22;46318;52.716;6.444;2023-03-20T13:01:30;10.80;99.90
60473;DHT22;46318;52.716;6.444;2023-03-20T13:12:18;10.60;99.90
60473;DHT22;46318;52.716;6.444;2023-03-20T13:18:10;10.50;99.90
60473;DHT22;46318;52.716;6.444;2023-03-20T13:20:59;10.50;99.90
60473;DHT22;46318;52.716;6.444;2023-03-20T13:23:42;10.50;99.90
60473;DHT22;46318;52.716;6.444;2023-03-20T13:26:28;10.50;99.90
60473;DHT22;46318;52.716;6.444;2023-03-20T13:32:38;10.50;99.90
60473;DHT22;46318;52.716;6.444;2023-03-20T13:35:20;10.50;99.90
60473;DHT22;46318;52.716;6.444;2023-03-20T13:37:58;10.50;99.90
60473;DHT22;46318;52.716;6.444;2023-03-20T13:40:28;10.50;99.90
60473;DHT22;46318;52.716;6.444;2023-03-20T13:45:50;10.40;99.90
60473;DHT22;46318;52.716;6.444;2023-03-20T13:48:39;10.40;99.90
60473;DHT22;46318;52.716;6.444;2023-03-20T14:05:43;10.20;99.90
60473;DHT22;46318;52.716;6.444;2023-03-20T14:08:46;10.10;99.90
60473;DHT22;46318;52.716;6.444;2023-03-20T14:11:25;10.10;99.90
60473;DHT22;46318;52.716;6.444;2023-03-20T14:14:14;10.10;99.90
60473;DHT22;46318;52.716;6.444;2023-03-20T14:16:42;10.10;99.90
60473;DHT22;46318;52.716;6.444;2023-03-20T14:19:19;10.10;99.90
60473;DHT22;46318;52.716;6.444;2023-03-20T14:21:47;10.10;99.90
60473;DHT22;46318;52.716;6.444;2023-03-20T14:24:17;10.10;99.90
60473;DHT22;46318;52.716;6.444;2023-03-20T14:26:50;10.10;99.90
60473;DHT22;46318;52.716;6.444;2023-03-20T14:29:30;10.10;99.90
60473;DHT22;46318;52.716;6.444;2023-03-20T14:40:16;10.00;99.90
60473;DHT22;46318;52.716;6.444;2023-03-20T14:43:00;10.00;99.90
60473;DHT22;46318;52.716;6.444;2023-03-20T14:46:03;9.90;99.90
60473;DHT22;46318;52.716;6.444;2023-03-20T14:48:58;9.90;99.90
60473;DHT22;46318;52.716;6.444;2023-03-20T14:51:44;9.90;99.90
60473;DHT22;46318;52.716;6.444;2023-03-20T14:56:51;9.80;99.90
60473;DHT22;46318;52.716;6.444;2023-03-20T14:59:19;9.80;99.90
60473;DHT22;46318;52.716;6.444;2023-03-20T15:01:56;9.80;99.90
60473;DHT22;46318;52.716;6.444;2023-03-20T15:04:39;9.80;99.90
60473;DHT22;46318;52.716;6.444;2023-03-20T15:07:15;9.70;99.90
60473;DHT22;46318;52.716;6.444;2023-03-20T15:09:44;9.70;99.90
60473;DHT22;46318;52.716;6.444;2023-03-20T15:12:15;9.70;99.90
60473;DHT22;46318;52.716;6.444;2023-03-20T15:14:52;9.70;99.90
60473;DHT22;46318;52.716;6.444;2023-03-20T15:20:23;9.70;99.90
60473;DHT22;46318;52.716;6.444;2023-03-20T15:22:55;9.70;99.90
60473;DHT22;46318;52.716;6.444;2023-03-20T15:25:32;9.70;99.90
60473;DHT22;46318;52.716;6.444;2023-03-20T15:28:07;9.70;99.90
60473;DHT22;46318;52.716;6.444;2023-03-20T15:30:37;9.70;99.90
60473;DHT22;46318;52.716;6.444;2023-03-20T15:33:06;9.70;99.90
60473;DHT22;46318;52.716;6.444;2023-03-20T15:35:35;9.70;99.90
60473;DHT22;46318;52.716;6.444;2023-03-20T15:38:05;9.70;99.90
60473;DHT22;46318;52.716;6.444;2023-03-20T15:40:33;9.70;99.90
60473;DHT22;46318;52.716;6.444;2023-03-20T15:45:41;9.70;99.90
60473;DHT22;46318;52.716;6.444;2023-03-20T15:48:15;9.70;99.90
60473;DHT22;46318;52.716;6.444;2023-03-20T15:50:49;9.70;99.90
60473;DHT22;46318;52.716;6.444;2023-03-20T15:53:36;9.60;99.90
60473;DHT22;46318;52.716;6.444;2023-03-20T15:56:18;9.70;99.90
60473;DHT22;46318;52.716;6.444;2023-03-20T15:58:47;9.60;99.90
60473;DHT22;46318;52.716;6.444;2023-03-20T16:01:17;9.60;99.90
60473;DHT22;46318;52.716;6.444;2023-03-20T16:03:44;9.60;99.90
60473;DHT22;46318;52.716;6.444;2023-03-20T16:06:11;9.60;99.90
60473;DHT22;46318;52.716;6.444;2023-03-20T16:08:41;9.60;99.90
60473;DHT22;46318;52.716;6.444;2023-03-20T16:11:15;9.60;99.90
60473;DHT22;46318;52.716;6.444;2023-03-20T16:13:44;9.60;99.90
60473;DHT22;46318;52.716;6.444;2023-03-20T16:16:17;9.60;99.90
60473;DHT22;46318;52.716;6.444;2023-03-20T16:18:45;9.60;99.90
60473;DHT22;46318;52.716;6.444;2023-03-20T16:21:26;9.60;99.90
60473;DHT22;46318;52.716;6.444;2023-03-20T16:23:55;9.60;99.90
60473;DHT22;46318;52.716;6.444;2023-03-20T16:26:24;9.60;99.90
60473;DHT22;46318;52.716;6.444;2023-03-20T16:28:54;9.60;99.90
60473;DHT22;46318;52.716;6.444;2023-03-20T16:31:26;9.60;99.90
60473;DHT22;46318;52.716;6.444;2023-03-20T16:34:07;9.60;99.90
60473;DHT22;46318;52.716;6.444;2023-03-20T16:36:36;9.50;99.90
60473;DHT22;46318;52.716;6.444;2023-03-20T16:39:16;9.50;99.90
60473;DHT22;46318;52.716;6.444;2023-03-20T16:41:45;9.50;99.90
60473;DHT22;46318;52.716;6.444;2023-03-20T16:44:20;9.50;99.90
60473;DHT22;46318;52.716;6.444;2023-03-20T16:52:26;9.50;99.90
60473;DHT22;46318;52.716;6.444;2023-03-20T16:54:56;9.50;99.90
60473;DHT22;46318;52.716;6.444;2023-03-20T16:57:22;9.50;99.90
60473;DHT22;46318;52.716;6.444;2023-03-20T16:59:50;9.50;99.90
60473;DHT22;46318;52.716;6.444;2023-03-20T17:02:23;9.50;99.90
60473;DHT22;46318;52.716;6.444;2023-03-20T17:04:55;9.50;99.90
60473;DHT22;46318;52.716;6.444;2023-03-20T17:07:22;9.50;99.90
60473;DHT22;46318;52.716;6.444;2023-03-20T17:09:56;9.50;99.90
60473;DHT22;46318;52.716;6.444;2023-03-20T17:12:29;9.40;99.90
60473;DHT22;46318;52.716;6.444;2023-03-20T17:14:56;9.40;99.90
60473;DHT22;46318;52.716;6.444;2023-03-20T17:17:23;9.40;99.90
60473;DHT22;46318;52.716;6.444;2023-03-20T17:19:50;9.40;99.90
60473;DHT22;46318;52.716;6.444;2023-03-20T17:22:22;9.40;99.90
60473;DHT22;46318;52.716;6.444;2023-03-20T17:24:50;9.40;99.90
60473;DHT22;46318;52.716;6.444;2023-03-20T17:27:18;9.40;99.90
60473;DHT22;46318;52.716;6.444;2023-03-20T17:29:44;9.40;99.90
60473;DHT22;46318;52.716;6.444;2023-03-20T17:32:13;9.40;99.90
60473;DHT22;46318;52.716;6.444;2023-03-20T17:34:40;9.40;99.90
60473;DHT22;46318;52.716;6.444;2023-03-20T17:37:12;9.30;99.90
60473;DHT22;46318;52.716;6.444;2023-03-20T17:39:40;9.30;99.90
60473;DHT22;46318;52.716;6.444;2023-03-20T17:42:16;9.30;99.90
60473;DHT22;46318;52.716;6.444;2023-03-20T17:44:44;9.30;99.90
60473;DHT22;46318;52.716;6.444;2023-03-20T17:47:19;9.30;99.90
60473;DHT22;46318;52.716;6.444;2023-03-20T17:49:47;9.30;99.90
60473;DHT22;46318;52.716;6.444;2023-03-20T17:52:15;9.30;99.90
60473;DHT22;46318;52.716;6.444;2023-03-20T17:54:44;9.30;99.90
60473;DHT22;46318;52.716;6.444;2023-03-20T17:57:34;9.30;99.90
60473;DHT22;46318;52.716;6.444;2023-03-20T18:00:04;9.30;99.90
60473;DHT22;46318;52.716;6.444;2023-03-20T18:02:31;9.30;99.90
60473;DHT22;46318;52.716;6.444;2023-03-20T18:04:57;9.30;99.90
60473;DHT22;46318;52.716;6.444;2023-03-20T18:07:23;9.20;99.90
60473;DHT22;46318;52.716;6.444;2023-03-20T18:09:49;9.20;99.90
60473;DHT22;46318;52.716;6.444;2023-03-20T18:12:17;9.20;99.90
60473;DHT22;46318;52.716;6.444;2023-03-20T18:14:44;9.20;99.90
60473;DHT22;46318;52.716;6.444;2023-03-20T18:17:11;9.20;99.90
60473;DHT22;46318;52.716;6.444;2023-03-20T18:19:38;9.20;99.90
60473;DHT22;46318;52.716;6.444;2023-03-20T18:22:04;9.20;99.90
60473;DHT22;46318;52.716;6.444;2023-03-20T18:24:31;9.20;99.90
60473;DHT22;46318;52.716;6.444;2023-03-20T18:26:57;9.20;99.90
60473;DHT22;46318;52.716;6.444;2023-03-20T18:29:24;9.20;99.90
60473;DHT22;46318;52.716;6.444;2023-03-20T18:31:50;9.20;99.90
60473;DHT22;46318;52.716;6.444;2023-03-20T18:34:16;9.20;99.90
60473;DHT22;46318;52.716;6.444;2023-03-20T18:36:42;9.20;99.90
60473;DHT22;46318;52.716;6.444;2023-03-20T18:39:21;9.20;99.90
60473;DHT22;46318;52.716;6.444;2023-03-20T18:41:48;9.20;99.90
60473;DHT22;46318;52.716;6.444;2023-03-20T18:44:14;9.20;99.90
60473;DHT22;46318;52.716;6.444;2023-03-20T18:46:41;9.20;99.90